Aviation Digital Data Service (ADDS)

Output produced by METARs form (1149 UTC 29 September 2016)
found at http://aviationweather.gov/adds/metars/
 
KORH 291137Z 2912/3012 04010G19KT P6SM SCT008 OVC017 
     FM291600 06012KT P6SM BKN050 
     FM300900 05012KT P6SM BKN030 
     FM301000 05012KT P6SM VCSH BKN025